| time (UTC) | temp C | wind direction | speed KPH | gust KPH | rain 1hr cm | rain 24hr cm | rain mn cm | humidity % | barometer mb |
| 20260507081515 | 12 | 300 | 0.0 | 0.0 | 0.00 | 0.89 | 0.64 | 91 | 1010.6 |
| 20260507080014 | 12 | 348 | 0.0 | 4.8 | 0.00 | 0.89 | 0.64 | 91 | 1010.3 |
| 20260507074524 | 12 | 288 | 0.0 | 9.7 | 0.00 | 0.89 | 0.64 | 91 | 1010.2 |
| 20260507073010 | 12 | 304 | 0.0 | 9.7 | 0.00 | 0.89 | 0.64 | 91 | 1010.0 |
| 20260507071509 | 13 | 346 | 0.0 | 6.4 | 0.00 | 0.89 | 0.64 | 92 | 1009.8 |
| 20260507070011 | 13 | 324 | 0.0 | 9.7 | 0.08 | 0.89 | 0.64 | 91 | 1009.7 |
| 20260507064507 | 13 | 335 | 4.8 | 14.5 | 0.18 | 0.89 | 0.64 | 92 | 1009.8 |
| 20260507063002 | 13 | 317 | 4.8 | 19.3 | 0.33 | 0.89 | 0.64 | 92 | 1009.3 |
| 20260507061600 | 14 | 298 | 6.4 | 17.7 | 0.46 | 0.89 | 0.64 | 92 | 1008.9 |
| 20260507054606 | 14 | 313 | 0.0 | 9.7 | 0.43 | 0.71 | 0.46 | 91 | 1009.6 |
| 20260507053125 | 14 | 331 | 0.0 | 12.9 | 0.30 | 0.56 | 0.30 | 90 | 1009.2 |
| 20260507051552 | 15 | 261 | 0.0 | 0.0 | 0.15 | 0.41 | 0.15 | 89 | 1009.7 |
| 20260507050048 | 15 | 304 | 0.0 | 3.2 | 0.08 | 0.33 | 0.08 | 87 | 1010.1 |
| 20260507044545 | 16 | 306 | 0.0 | 19.3 | 0.03 | 0.28 | 0.03 | 86 | 1009.8 |
| 20260507043040 | 17 | 292 | 1.6 | 12.9 | 0.00 | 0.25 | 0.00 | 86 | 1010.0 |
| 20260507041538 | 17 | 324 | 0.0 | 12.9 | 0.00 | 0.25 | 0.00 | 87 | 1009.5 |
| 20260507040035 | 17 | 310 | 0.0 | 11.3 | 0.00 | 0.25 | 0.00 | 88 | 1009.2 |
| 20260507034535 | 17 | 305 | 1.6 | 8.0 | 0.00 | 0.25 | 0.25 | 88 | 1009.1 |
| 20260507033037 | 18 | 321 | 1.6 | 14.5 | 0.00 | 0.25 | 0.25 | 89 | 1009.1 |
| 20260507031533 | 18 | 321 | 0.0 | 9.7 | 0.00 | 0.25 | 0.25 | 90 | 1008.8 |
| 20260507030034 | 17 | 192 | 0.0 | 0.0 | 0.00 | 0.25 | 0.25 | 91 | 1008.6 |
| 20260507024535 | 17 | 192 | 0.0 | 0.0 | 0.00 | 0.25 | 0.25 | 91 | 1008.4 |
| 20260507023031 | 17 | 192 | 0.0 | 0.0 | 0.00 | 0.25 | 0.25 | 91 | 1008.5 |
| 20260507021532 | 17 | 192 | 0.0 | 0.0 | 0.00 | 0.25 | 0.25 | 91 | 1008.5 |
| 20260507020034 | 17 | 192 | 0.0 | 0.0 | 0.00 | 0.25 | 0.25 | 91 | 1008.7 |
| 20260507014531 | 17 | 192 | 0.0 | 0.0 | 0.00 | 0.25 | 0.25 | 91 | 1008.5 |
| 20260507013036 | 17 | 192 | 0.0 | 0.0 | 0.00 | 0.25 | 0.25 | 90 | 1008.7 |
| 20260507011538 | 17 | 192 | 0.0 | 0.0 | 0.00 | 0.25 | 0.25 | 90 | 1009.1 |
| 20260507010030 | 17 | 192 | 0.0 | 0.0 | 0.00 | 0.25 | 0.25 | 90 | 1008.8 |
| 20260507004529 | 17 | 192 | 0.0 | 0.0 | 0.00 | 0.25 | 0.25 | 89 | 1008.8 |
| 20260507003028 | 17 | 192 | 0.0 | 0.0 | 0.00 | 0.25 | 0.25 | 88 | 1008.5 |
| 20260507001529 | 18 | 195 | 0.0 | 0.0 | 0.00 | 0.25 | 0.25 | 88 | 1008.5 |
| 20260507000026 | 18 | 195 | 0.0 | 0.0 | 0.00 | 0.25 | 0.25 | 87 | 1008.2 |
| 20260506234531 | 18 | 195 | 0.0 | 0.0 | 0.00 | 0.25 | 0.25 | 85 | 1008.1 |
| 20260506233026 | 18 | 195 | 0.0 | 0.0 | 0.00 | 0.25 | 0.25 | 85 | 1008.0 |
| 20260506231525 | 19 | 194 | 0.0 | 0.0 | 0.00 | 0.25 | 0.25 | 84 | 1008.0 |
| 20260506230023 | 20 | 215 | 0.0 | 1.6 | 0.00 | 0.25 | 0.25 | 82 | 1007.8 |
| 20260506224527 | 20 | 184 | 0.0 | 9.7 | 0.00 | 0.25 | 0.25 | 82 | 1007.7 |
| 20260506223022 | 20 | 210 | 0.0 | 6.4 | 0.00 | 0.25 | 0.25 | 81 | 1007.9 |
| 20260506221522 | 20 | 225 | 0.0 | 11.3 | 0.00 | 0.25 | 0.25 | 81 | 1007.9 |
| 20260506220021 | 20 | 196 | 3.2 | 19.3 | 0.00 | 0.25 | 0.25 | 80 | 1007.9 |
| 20260506214520 | 20 | 222 | 1.6 | 9.7 | 0.00 | 0.25 | 0.25 | 80 | 1008.0 |
| 20260506213021 | 20 | 220 | 1.6 | 12.9 | 0.00 | 0.25 | 0.25 | 80 | 1007.8 |
| 20260506211519 | 20 | 214 | 1.6 | 16.1 | 0.00 | 0.25 | 0.25 | 81 | 1007.7 |
| 20260506210023 | 20 | 214 | 0.0 | 19.3 | 0.00 | 0.25 | 0.25 | 81 | 1007.5 |
| 20260506204519 | 20 | 166 | 3.2 | 20.9 | 0.00 | 0.25 | 0.25 | 80 | 1007.4 |
| 20260506203017 | 20 | 203 | 4.8 | 14.5 | 0.00 | 0.25 | 0.25 | 81 | 1007.3 |
| 20260506201521 | 20 | 248 | 3.2 | 27.4 | 0.00 | 0.25 | 0.25 | 81 | 1007.5 |
| 20260506200019 | 20 | 124 | 4.8 | 30.6 | 0.00 | 0.25 | 0.25 | 82 | 1007.3 |
| 20260506194516 | 20 | 182 | 6.4 | 19.3 | 0.00 | 0.25 | 0.25 | 82 | 1007.3 |
| 20260506193013 | 20 | 214 | 3.2 | 25.7 | 0.00 | 0.25 | 0.25 | 82 | 1007.9 |
| 20260506191516 | 20 | 201 | 8.0 | 27.4 | 0.00 | 0.25 | 0.25 | 82 | 1007.9 |
| 20260506190012 | 20 | 227 | 8.0 | 22.5 | 0.00 | 0.25 | 0.25 | 81 | 1008.1 |
| 20260506184512 | 20 | 184 | 3.2 | 20.9 | 0.00 | 0.25 | 0.25 | 81 | 1008.0 |
| 20260506183012 | 20 | 219 | 6.4 | 29.0 | 0.00 | 0.25 | 0.25 | 83 | 1008.3 |
| 20260506181506 | 20 | 220 | 4.8 | 25.7 | 0.00 | 0.25 | 0.25 | 82 | 1008.6 |
| 20260506180006 | 20 | 247 | 6.4 | 27.4 | 0.00 | 0.25 | 0.25 | 82 | 1008.6 |
| 20260506174507 | 19 | 157 | 4.8 | 33.8 | 0.00 | 0.25 | 0.25 | 85 | 1008.8 |
| 20260506173006 | 19 | 219 | 4.8 | 22.5 | 0.00 | 0.25 | 0.25 | 86 | 1008.7 |
| 20260506171508 | 18 | 225 | 8.0 | 25.7 | 0.00 | 0.25 | 0.25 | 88 | 1009.1 |
| 20260506170004 | 18 | 190 | 6.4 | 27.4 | 0.00 | 0.25 | 0.25 | 88 | 1008.9 |
| 20260506164502 | 17 | 180 | 3.2 | 14.5 | 0.03 | 0.25 | 0.25 | 90 | 1009.3 |
| 20260506163133 | 17 | 138 | 11.3 | 29.0 | 0.05 | 0.25 | 0.25 | 91 | 1009.2 |
| 20260506161559 | 17 | 201 | 4.8 | 17.7 | 0.05 | 0.25 | 0.25 | 92 | 1009.3 |
| 20260506160055 | 17 | 163 | 3.2 | 17.7 | 0.08 | 0.25 | 0.25 | 92 | 1009.6 |
| 20260506154555 | 16 | 213 | 3.2 | 25.7 | 0.10 | 0.23 | 0.23 | 92 | 1009.5 |
| 20260506153102 | 16 | 157 | 0.0 | 11.3 | 0.10 | 0.20 | 0.20 | 92 | 1009.8 |
| 20260506151551 | 16 | 167 | 1.6 | 11.3 | 0.15 | 0.20 | 0.20 | 92 | 1010.3 |
| 20260506150048 | 16 | 205 | 1.6 | 14.5 | 0.10 | 0.15 | 0.15 | 91 | 1010.2 |
| 20260506144548 | 16 | 169 | 1.6 | 8.0 | 0.10 | 0.13 | 0.13 | 91 | 1010.4 |
| 20260506143045 | 16 | 194 | 1.6 | 12.9 | 0.10 | 0.10 | 0.10 | 90 | 1010.4 |
| 20260506141544 | 16 | 159 | 0.0 | 12.9 | 0.05 | 0.05 | 0.05 | 89 | 1010.3 |
| 20260506140043 | 16 | 177 | 1.6 | 11.3 | 0.05 | 0.05 | 0.05 | 88 | 1010.5 |
| 20260506134539 | 17 | 203 | 1.6 | 14.5 | 0.03 | 0.03 | 0.03 | 85 | 1010.5 |
| 20260506133038 | 17 | 225 | 1.6 | 16.1 | 0.00 | 0.00 | 0.00 | 80 | 1010.7 |
| 20260506131538 | 18 | 229 | 4.8 | 16.1 | 0.00 | 0.00 | 0.00 | 78 | 1010.4 |
| 20260506130039 | 18 | 180 | 1.6 | 17.7 | 0.00 | 0.00 | 0.00 | 77 | 1010.1 |
| 20260506124535 | 18 | 194 | 4.8 | 12.9 | 0.00 | 0.00 | 0.00 | 76 | 1010.0 |
| 20260506123032 | 18 | 161 | 3.2 | 16.1 | 0.00 | 0.00 | 0.00 | 77 | 1010.2 |
| 20260506121532 | 18 | 205 | 3.2 | 22.5 | 0.00 | 0.00 | 0.00 | 76 | 1010.3 |
| 20260506120034 | 18 | 223 | 4.8 | 24.1 | 0.00 | 0.00 | 0.00 | 76 | 1010.4 |
| 20260506114531 | 18 | 207 | 4.8 | 19.3 | 0.00 | 0.00 | 0.00 | 76 | 1010.1 |
| 20260506113030 | 18 | 154 | 4.8 | 24.1 | 0.00 | 0.00 | 0.00 | 78 | 1010.0 |
| 20260506111531 | 18 | 161 | 1.6 | 22.5 | 0.00 | 0.00 | 0.00 | 79 | 1009.8 |
| 20260506110025 | 17 | 175 | 1.6 | 20.9 | 0.00 | 0.00 | 0.00 | 79 | 1009.7 |
| 20260506104524 | 17 | 191 | 3.2 | 14.5 | 0.00 | 0.00 | 0.00 | 80 | 1009.8 |
| 20260506103022 | 17 | 218 | 0.0 | 12.9 | 0.00 | 0.00 | 0.00 | 80 | 1009.7 |
| 20260506101521 | 17 | 187 | 1.6 | 20.9 | 0.00 | 0.00 | 0.00 | 80 | 1009.8 |
| 20260506100019 | 17 | 135 | 1.6 | 12.9 | 0.00 | 0.00 | 0.00 | 80 | 1009.6 |
| 20260506094518 | 17 | 176 | 3.2 | 16.1 | 0.00 | 0.00 | 0.00 | 80 | 1009.6 |
| 20260506093016 | 17 | 254 | 1.6 | 17.7 | 0.00 | 0.00 | 0.00 | 80 | 1009.8 |
| 20260506091514 | 17 | 184 | 3.2 | 14.5 | 0.00 | 0.00 | 0.00 | 79 | 1009.9 |
| 20260506090013 | 17 | 166 | 1.6 | 14.5 | 0.00 | 0.00 | 0.00 | 79 | 1009.8 |
| 20260506084510 | 17 | 165 | 4.8 | 16.1 | 0.00 | 0.00 | 0.00 | 78 | 1009.9 |
| 20260506083015 | 17 | 138 | 3.2 | 16.1 | 0.00 | 0.00 | 0.00 | 77 | 1009.9 |